createdAt,value
2018-04-11T00:00:14.165Z,0.00
2018-04-11T00:01:14.350Z,0.00
2018-04-11T00:02:14.531Z,0.00
2018-04-11T00:03:14.701Z,0.00
2018-04-11T00:04:14.887Z,0.00
2018-04-11T00:05:15.071Z,0.00
2018-04-11T00:06:15.257Z,0.00
2018-04-11T00:07:15.489Z,0.00
2018-04-11T00:08:15.608Z,0.00
2018-04-11T00:09:15.791Z,0.00
2018-04-11T00:10:15.979Z,0.00
2018-04-11T00:11:16.154Z,0.00
2018-04-11T00:12:16.327Z,0.00
2018-04-11T00:13:16.516Z,0.00
2018-04-11T00:14:16.696Z,0.00
2018-04-11T00:15:16.875Z,0.00
2018-04-11T00:16:17.067Z,0.00
2018-04-11T00:17:17.253Z,0.00
2018-04-11T00:18:17.428Z,0.00
2018-04-11T00:19:17.605Z,0.00
2018-04-11T00:20:17.794Z,0.00
2018-04-11T00:21:17.974Z,0.00
2018-04-11T00:22:18.151Z,0.00
2018-04-11T00:23:18.331Z,0.00
2018-04-11T00:24:18.513Z,0.00
2018-04-11T00:25:18.700Z,0.00
2018-04-11T00:26:18.885Z,0.00
2018-04-11T00:27:19.066Z,0.00
2018-04-11T00:28:19.253Z,0.00
2018-04-11T00:29:19.435Z,0.00
2018-04-11T00:30:19.617Z,0.00
2018-04-11T00:31:19.794Z,0.00
2018-04-11T00:32:19.985Z,0.00
2018-04-11T00:33:20.163Z,0.00
2018-04-11T00:34:20.349Z,0.00
2018-04-11T00:35:20.524Z,0.00
2018-04-11T00:36:20.719Z,0.00
2018-04-11T00:37:20.888Z,0.00
2018-04-11T00:38:21.077Z,0.00
2018-04-11T00:39:21.255Z,0.00
2018-04-11T00:40:21.437Z,0.00
2018-04-11T00:41:21.617Z,0.00
2018-04-11T00:42:21.795Z,0.00
2018-04-11T00:43:21.968Z,0.00
2018-04-11T00:44:22.158Z,0.00
2018-04-11T00:45:22.342Z,0.00
2018-04-11T00:46:22.555Z,0.00
2018-04-11T00:47:22.700Z,0.00
2018-04-11T00:48:22.883Z,0.00
2018-04-11T00:49:23.065Z,0.00
2018-04-11T00:50:23.243Z,0.00
2018-04-11T00:51:23.430Z,0.00
2018-04-11T00:52:23.612Z,0.00
2018-04-11T00:53:23.789Z,0.00
2018-04-11T00:54:23.975Z,0.00
2018-04-11T00:55:24.165Z,0.00
2018-04-11T00:56:24.343Z,0.00
2018-04-11T00:57:24.522Z,0.00
2018-04-11T00:58:24.698Z,0.00
2018-04-11T00:59:24.880Z,0.00
2018-04-11T01:00:25.052Z,0.00
2018-04-11T01:01:25.231Z,0.00
2018-04-11T01:02:25.414Z,0.00
2018-04-11T01:03:25.593Z,0.00
2018-04-11T01:04:25.776Z,0.00
2018-04-11T01:05:25.973Z,0.00
2018-04-11T01:06:26.132Z,0.00
2018-04-11T01:07:26.312Z,0.00
2018-04-11T01:08:26.495Z,0.00
2018-04-11T01:09:26.676Z,0.00
2018-04-11T01:10:26.858Z,0.00
2018-04-11T01:11:27.045Z,0.00
2018-04-11T01:12:27.231Z,0.00
2018-04-11T01:13:27.413Z,0.00
2018-04-11T01:14:27.589Z,0.00
2018-04-11T01:15:27.771Z,0.00
2018-04-11T01:16:27.958Z,0.00
2018-04-11T01:17:28.138Z,0.00
2018-04-11T01:18:28.325Z,0.00
2018-04-11T01:19:28.513Z,0.00
2018-04-11T01:20:28.690Z,0.00
2018-04-11T01:21:28.876Z,0.00
2018-04-11T01:22:29.051Z,0.00
2018-04-11T01:23:29.238Z,0.00
2018-04-11T01:24:29.420Z,0.00
2018-04-11T01:25:30.127Z,0.00
2018-04-11T01:26:29.772Z,0.00
2018-04-11T01:27:29.961Z,0.00
2018-04-11T01:28:30.140Z,0.00
2018-04-11T01:30:30.500Z,0.00
2018-04-11T01:31:30.682Z,0.00
2018-04-11T01:32:30.870Z,0.00
2018-04-11T01:33:31.046Z,0.00
2018-04-11T01:34:31.241Z,0.00
2018-04-11T01:35:31.421Z,0.00
2018-04-11T01:36:31.606Z,0.00
2018-04-11T01:37:31.785Z,0.00
2018-04-11T01:38:31.969Z,0.00
2018-04-11T01:39:32.151Z,0.00
2018-04-11T01:40:32.330Z,0.00
2018-04-11T01:41:32.511Z,0.00
2018-04-11T01:42:32.709Z,0.00
2018-04-11T01:43:32.883Z,0.00
2018-04-11T01:44:33.061Z,0.00
2018-04-11T01:45:33.251Z,0.00
2018-04-11T01:46:33.436Z,0.00
2018-04-11T01:47:33.623Z,0.00
2018-04-11T01:48:33.800Z,0.00
2018-04-11T01:49:33.990Z,0.00
2018-04-11T01:50:34.168Z,0.00
2018-04-11T01:51:34.355Z,0.00
2018-04-11T01:52:34.525Z,0.00
2018-04-11T01:53:34.726Z,0.00
2018-04-11T01:54:34.904Z,0.00
2018-04-11T01:55:35.085Z,0.00
2018-04-11T01:56:35.274Z,0.00
2018-04-11T01:57:35.458Z,0.00
2018-04-11T01:58:35.629Z,0.00
2018-04-11T01:59:35.809Z,0.00
2018-04-11T02:00:35.999Z,0.00
2018-04-11T02:01:36.175Z,0.00
2018-04-11T02:02:36.355Z,0.00
2018-04-11T02:03:36.542Z,0.00
2018-04-11T02:04:36.717Z,0.00
2018-04-11T02:05:36.900Z,0.00
2018-04-11T02:06:37.079Z,0.00
2018-04-11T02:07:37.262Z,0.00
2018-04-11T02:08:37.439Z,0.00
2018-04-11T02:09:37.641Z,0.00
2018-04-11T02:10:37.804Z,0.00
2018-04-11T02:11:37.983Z,0.00
2018-04-11T02:12:38.163Z,0.00
2018-04-11T02:13:38.340Z,0.00
2018-04-11T02:14:38.535Z,0.00
2018-04-11T02:15:38.709Z,0.00
2018-04-11T02:16:38.887Z,0.00
2018-04-11T02:17:39.078Z,0.00
2018-04-11T02:18:39.264Z,0.00
2018-04-11T02:19:39.451Z,0.00
2018-04-11T02:20:39.623Z,0.00
2018-04-11T02:21:39.802Z,0.00
2018-04-11T02:22:39.984Z,0.00
2018-04-11T02:23:40.165Z,0.00
2018-04-11T02:24:40.343Z,0.00
2018-04-11T02:25:40.529Z,0.00
2018-04-11T02:26:40.708Z,0.00
2018-04-11T02:27:40.887Z,0.00
2018-04-11T02:28:41.072Z,0.00
2018-04-11T02:29:41.254Z,0.00
2018-04-11T02:30:41.437Z,0.00
2018-04-11T02:31:41.613Z,0.00
2018-04-11T02:32:41.798Z,0.00
2018-04-11T02:33:41.979Z,0.00
2018-04-11T02:35:42.334Z,0.00
2018-04-11T02:36:42.518Z,0.00
2018-04-11T02:37:42.702Z,0.00
2018-04-11T02:38:42.890Z,0.00
2018-04-11T02:39:43.060Z,0.00
2018-04-11T02:40:43.241Z,0.00
2018-04-11T02:41:43.776Z,0.00
2018-04-11T02:42:43.601Z,0.00
2018-04-11T02:43:43.784Z,0.00
2018-04-11T02:44:44.013Z,0.00
2018-04-11T02:45:44.147Z,0.00
2018-04-11T02:46:44.327Z,0.00
2018-04-11T02:47:44.509Z,0.00
2018-04-11T02:48:44.697Z,0.00
2018-04-11T02:49:44.872Z,0.00
2018-04-11T02:50:45.056Z,0.00
2018-04-11T02:51:45.239Z,0.00
2018-04-11T02:52:45.414Z,0.00
2018-04-11T02:53:45.591Z,0.00
2018-04-11T02:54:45.780Z,0.00
2018-04-11T02:55:45.963Z,0.00
2018-04-11T02:56:46.165Z,0.00
2018-04-11T02:57:46.323Z,0.00
2018-04-11T02:58:46.505Z,0.00
2018-04-11T02:59:46.715Z,0.00
2018-04-11T03:00:46.894Z,0.00
2018-04-11T03:01:47.080Z,0.00
2018-04-11T03:02:47.264Z,0.00
2018-04-11T03:03:47.445Z,0.00
2018-04-11T03:04:47.630Z,0.00
2018-04-11T03:05:47.807Z,0.00
2018-04-11T03:06:47.989Z,0.00
2018-04-11T03:07:48.168Z,0.00
2018-04-11T03:08:48.358Z,0.00
2018-04-11T03:09:48.537Z,0.00
2018-04-11T03:10:48.722Z,0.00
2018-04-11T03:11:48.912Z,0.00
2018-04-11T03:12:49.084Z,0.00
2018-04-11T03:13:49.266Z,0.00
2018-04-11T03:14:49.441Z,0.00
2018-04-11T03:15:49.912Z,0.00
2018-04-11T03:16:49.807Z,0.00
2018-04-11T03:17:49.995Z,0.00
2018-04-11T03:18:50.178Z,0.00
2018-04-11T03:19:50.357Z,0.00
2018-04-11T03:20:50.546Z,0.00
2018-04-11T03:21:50.751Z,0.00
2018-04-11T03:22:50.900Z,0.00
2018-04-11T03:23:51.092Z,0.00
2018-04-11T03:24:51.269Z,0.00
2018-04-11T03:25:51.448Z,0.00
2018-04-11T03:26:51.644Z,0.00
2018-04-11T03:27:51.813Z,0.00
2018-04-11T03:28:51.999Z,0.00
2018-04-11T03:29:52.178Z,0.00
2018-04-11T03:30:52.360Z,0.00
2018-04-11T03:31:52.539Z,0.00
2018-04-11T03:32:52.727Z,0.00
2018-04-11T03:33:52.915Z,0.00
2018-04-11T03:34:53.096Z,0.00
2018-04-11T03:35:53.276Z,0.00
2018-04-11T03:36:53.461Z,0.00
2018-04-11T03:37:53.640Z,0.00
2018-04-11T03:38:53.829Z,0.00
2018-04-11T03:39:54.023Z,0.00
2018-04-11T03:40:54.189Z,0.00
2018-04-11T03:41:54.364Z,0.00
2018-04-11T03:42:54.546Z,0.00
2018-04-11T03:43:54.736Z,0.00
2018-04-11T03:44:54.900Z,0.00
2018-04-11T03:45:55.082Z,0.00
2018-04-11T03:46:55.261Z,0.00
2018-04-11T03:47:55.444Z,0.00
2018-04-11T03:48:55.623Z,0.00
2018-04-11T03:49:55.817Z,0.00
2018-04-11T03:50:55.987Z,0.00
2018-04-11T03:51:56.169Z,0.00
2018-04-11T03:52:56.348Z,0.00
2018-04-11T03:53:56.534Z,0.00
2018-04-11T03:54:56.713Z,0.00
2018-04-11T03:55:56.897Z,0.00
2018-04-11T03:56:57.300Z,0.00
2018-04-11T03:57:57.265Z,0.00
2018-04-11T03:58:57.444Z,0.00
2018-04-11T03:59:57.622Z,0.00
2018-04-11T04:00:57.812Z,0.00
2018-04-11T04:01:57.990Z,0.00
2018-04-11T04:02:58.169Z,0.00
2018-04-11T04:03:58.352Z,0.00
2018-04-11T04:04:58.529Z,0.00
2018-04-11T04:05:58.715Z,0.00
2018-04-11T04:06:58.892Z,0.00
2018-04-11T04:07:59.073Z,0.00
2018-04-11T04:08:59.254Z,0.00
2018-04-11T04:09:59.430Z,0.00
2018-04-11T04:10:59.615Z,0.00
2018-04-11T04:11:59.798Z,0.00
2018-04-11T04:12:59.970Z,4.00
2018-04-11T04:14:00.146Z,4.00
2018-04-11T04:15:00.329Z,4.00
2018-04-11T04:16:00.517Z,0.00
2018-04-11T04:17:00.693Z,0.00
2018-04-11T04:18:00.882Z,4.00
2018-04-11T04:19:01.076Z,4.00
2018-04-11T04:20:01.239Z,4.00
2018-04-11T04:21:01.420Z,4.00
2018-04-11T04:22:01.602Z,4.00
2018-04-11T04:23:01.781Z,4.00
2018-04-11T04:24:01.978Z,4.00
2018-04-11T04:25:02.145Z,8.00
2018-04-11T04:26:02.326Z,4.00
2018-04-11T04:27:02.510Z,8.00
2018-04-11T04:28:02.690Z,8.00
2018-04-11T04:29:02.871Z,8.00
2018-04-11T04:30:03.052Z,12.00
2018-04-11T04:31:03.231Z,12.00
2018-04-11T04:32:03.410Z,8.00
2018-04-11T04:33:03.594Z,8.00
2018-04-11T04:34:03.771Z,12.00
2018-04-11T04:35:03.955Z,12.00
2018-04-11T04:36:04.129Z,12.00
2018-04-11T04:37:04.320Z,12.00
2018-04-11T04:38:04.497Z,12.00
2018-04-11T04:39:04.678Z,12.00
2018-04-11T04:40:04.860Z,12.00
2018-04-11T04:41:05.044Z,16.00
2018-04-11T04:42:05.221Z,16.00
2018-04-11T04:43:05.393Z,16.00
2018-04-11T04:44:05.588Z,12.00
2018-04-11T04:45:05.768Z,16.00
2018-04-11T04:46:05.933Z,16.00
2018-04-11T04:47:06.115Z,16.00
2018-04-11T04:48:06.304Z,16.00
2018-04-11T04:49:06.483Z,20.00
2018-04-11T04:50:06.658Z,24.00
2018-04-11T04:51:06.846Z,32.00
2018-04-11T04:52:07.021Z,40.00
2018-04-11T04:53:07.203Z,40.00
2018-04-11T04:54:07.380Z,40.00
2018-04-11T04:55:07.566Z,36.00
2018-04-11T04:56:07.749Z,32.00
2018-04-11T04:57:07.932Z,36.00
2018-04-11T04:58:08.118Z,40.00
2018-04-11T04:59:08.293Z,40.00
2018-04-11T05:00:08.470Z,40.00
2018-04-11T05:01:08.650Z,48.00
2018-04-11T05:02:08.838Z,52.00
2018-04-11T05:03:09.017Z,64.00
2018-04-11T05:04:09.196Z,64.00
2018-04-11T05:05:09.380Z,68.00
2018-04-11T05:06:09.571Z,76.00
2018-04-11T05:07:09.728Z,80.00
2018-04-11T05:08:09.911Z,88.00
2018-04-11T05:09:10.090Z,100.00
2018-04-11T05:10:10.271Z,112.00
2018-04-11T05:11:10.453Z,120.00
2018-04-11T05:12:10.631Z,136.00
2018-04-11T05:13:10.815Z,156.00
2018-04-11T05:14:10.998Z,176.00
2018-04-11T05:15:11.177Z,200.00
2018-04-11T05:16:11.364Z,220.00
2018-04-11T05:17:11.552Z,244.00
2018-04-11T05:18:11.725Z,264.00
2018-04-11T05:19:11.908Z,276.00
2018-04-11T05:20:12.091Z,276.00
2018-04-11T05:21:12.267Z,260.00
2018-04-11T05:22:12.457Z,244.00
2018-04-11T05:23:12.629Z,224.00
2018-04-11T05:24:12.811Z,208.00
2018-04-11T05:25:12.990Z,204.00
2018-04-11T05:26:13.171Z,208.00
2018-04-11T05:27:13.357Z,216.00
2018-04-11T05:28:13.539Z,228.00
2018-04-11T05:29:13.719Z,236.00
2018-04-11T05:30:13.918Z,232.00
2018-04-11T05:31:14.085Z,232.00
2018-04-11T05:33:14.446Z,232.00
2018-04-11T05:34:14.632Z,236.00
2018-04-11T05:35:14.804Z,236.00
2018-04-11T05:36:14.987Z,236.00
2018-04-11T05:37:15.162Z,240.00
2018-04-11T05:38:15.348Z,244.00
2018-04-11T05:39:15.529Z,252.00
2018-04-11T05:40:15.713Z,248.00
2018-04-11T05:41:15.929Z,248.00
2018-04-11T05:42:16.090Z,244.00
2018-04-11T05:43:16.258Z,240.00
2018-04-11T05:44:16.447Z,240.00
2018-04-11T05:45:16.623Z,232.00
2018-04-11T05:46:16.795Z,212.00
2018-04-11T05:47:16.986Z,184.00
2018-04-11T05:48:17.155Z,160.00
2018-04-11T05:49:17.334Z,144.00
2018-04-11T05:50:17.509Z,136.00
2018-04-11T05:51:17.684Z,132.00
2018-04-11T05:52:17.871Z,128.00
2018-04-11T05:53:18.050Z,128.00
2018-04-11T05:54:18.240Z,128.00
2018-04-11T05:55:18.417Z,124.00
2018-04-11T05:56:18.601Z,124.00
2018-04-11T05:57:18.795Z,124.00
2018-04-11T05:58:18.977Z,124.00
2018-04-11T05:59:19.150Z,124.00
2018-04-11T06:00:19.330Z,120.00
2018-04-11T06:01:19.511Z,120.00
2018-04-11T06:02:19.691Z,124.00
2018-04-11T06:03:19.872Z,124.00
2018-04-11T06:04:20.067Z,120.00
2018-04-11T06:05:20.224Z,120.00
2018-04-11T06:06:20.420Z,128.00
2018-04-11T06:07:20.594Z,132.00
2018-04-11T06:08:20.801Z,124.00
2018-04-11T06:09:20.957Z,120.00
2018-04-11T06:10:21.135Z,124.00
2018-04-11T06:11:21.324Z,152.00
2018-04-11T06:12:21.496Z,192.00
2018-04-11T06:13:21.692Z,220.00
2018-04-11T06:14:21.842Z,232.00
2018-04-11T06:15:22.020Z,232.00
2018-04-11T06:16:22.206Z,236.00
2018-04-11T06:17:22.385Z,240.00
2018-04-11T06:18:22.559Z,244.00
2018-04-11T06:19:22.746Z,244.00
2018-04-11T06:20:22.930Z,240.00
2018-04-11T06:21:23.102Z,244.00
2018-04-11T06:22:23.285Z,260.00
2018-04-11T06:23:23.471Z,272.00
2018-04-11T06:24:23.651Z,280.00
2018-04-11T06:25:23.840Z,292.00
2018-04-11T06:26:24.052Z,296.00
2018-04-11T06:27:24.205Z,288.00
2018-04-11T06:28:24.378Z,284.00
2018-04-11T06:29:24.558Z,268.00
2018-04-11T06:30:24.743Z,268.00
2018-04-11T06:31:24.923Z,276.00
2018-04-11T06:32:25.108Z,280.00
2018-04-11T06:33:25.289Z,280.00
2018-04-11T06:34:25.476Z,272.00
2018-04-11T06:35:25.650Z,280.00
2018-04-11T06:36:25.837Z,316.00
2018-04-11T06:37:26.017Z,356.00
2018-04-11T06:38:26.197Z,404.00
2018-04-11T06:39:26.381Z,452.00
2018-04-11T06:40:26.826Z,488.00
2018-04-11T06:41:26.745Z,500.00
2018-04-11T06:42:26.922Z,496.00
2018-04-11T06:43:27.104Z,508.00
2018-04-11T06:44:27.288Z,512.00
2018-04-11T06:45:27.469Z,488.00
2018-04-11T06:46:27.654Z,464.00
2018-04-11T06:47:27.839Z,472.00
2018-04-11T06:48:28.025Z,524.00
2018-04-11T06:49:28.220Z,592.00
2018-04-11T06:50:28.653Z,636.00
2018-04-11T06:51:28.581Z,648.00
2018-04-11T06:52:28.767Z,656.00
2018-04-11T06:53:28.952Z,692.00
2018-04-11T06:54:29.137Z,680.00
2018-04-11T06:55:29.390Z,620.00
2018-04-11T06:56:29.495Z,592.00
2018-04-11T06:57:29.929Z,616.00
2018-04-11T06:58:29.858Z,668.00
2018-04-11T06:59:30.057Z,732.00
2018-04-11T07:00:30.224Z,796.00
2018-04-11T07:01:30.413Z,836.00
2018-04-11T07:02:30.584Z,888.00
2018-04-11T07:03:30.768Z,964.00
2018-04-11T07:04:30.954Z,1016.00
2018-04-11T07:05:31.140Z,1008.00
2018-04-11T07:06:31.320Z,936.00
2018-04-11T07:07:31.520Z,856.00
2018-04-11T07:08:31.733Z,804.00
2018-04-11T07:09:31.866Z,792.00
2018-04-11T07:10:32.048Z,788.00
2018-04-11T07:11:32.227Z,768.00
2018-04-11T07:12:32.412Z,724.00
2018-04-11T07:13:32.594Z,680.00
2018-04-11T07:14:32.780Z,644.00
2018-04-11T07:15:32.962Z,644.00
2018-04-11T07:16:33.141Z,644.00
2018-04-11T07:17:33.321Z,644.00
2018-04-11T07:18:33.503Z,644.00
2018-04-11T07:19:33.692Z,668.00
2018-04-11T07:20:33.865Z,712.00
2018-04-11T07:21:34.291Z,748.00
2018-04-11T07:22:34.230Z,776.00
2018-04-11T07:23:34.429Z,824.00
2018-04-11T07:24:34.593Z,872.00
2018-04-11T07:25:34.777Z,940.00
2018-04-11T07:26:34.963Z,1044.00
2018-04-11T07:27:35.138Z,1144.00
2018-04-11T07:28:35.323Z,1236.00
2018-04-11T07:29:35.512Z,1328.00
2018-04-11T07:30:35.695Z,1440.00
2018-04-11T07:31:35.869Z,1480.00
2018-04-11T07:32:36.049Z,1488.00
2018-04-11T07:33:36.231Z,1468.00
2018-04-11T07:34:36.416Z,1452.00
2018-04-11T07:35:36.599Z,1424.00
2018-04-11T07:36:36.782Z,1376.00
2018-04-11T07:37:36.964Z,1332.00
2018-04-11T07:41:09.448Z,1292.00
2018-04-11T07:42:09.630Z,1356.00
2018-04-11T07:43:09.809Z,1392.00
2018-04-11T07:44:10.004Z,1388.00
2018-04-11T07:45:10.434Z,1344.00
2018-04-11T07:46:10.463Z,1300.00
2018-04-11T07:47:10.546Z,1228.00
2018-04-11T07:48:10.719Z,1124.00
2018-04-11T07:49:10.919Z,1024.00
2018-04-11T07:50:11.090Z,932.00
2018-04-11T07:51:11.270Z,868.00
2018-04-11T07:52:11.453Z,824.00
2018-04-11T07:53:11.642Z,796.00
2018-04-11T07:54:11.808Z,788.00
2018-04-11T07:55:12.231Z,784.00
2018-04-11T07:56:12.180Z,772.00
2018-04-11T07:57:12.343Z,744.00
2018-04-11T07:58:12.516Z,740.00
2018-04-11T07:59:12.696Z,744.00
2018-04-11T08:00:12.881Z,756.00
2018-04-11T08:01:13.064Z,744.00
2018-04-11T08:02:13.243Z,724.00
2018-04-11T08:03:13.436Z,720.00
2018-04-11T08:04:13.611Z,724.00
2018-04-11T08:05:13.789Z,704.00
2018-04-11T08:06:13.991Z,688.00
2018-04-11T08:07:14.157Z,660.00
2018-04-11T08:08:14.336Z,604.00
2018-04-11T08:09:14.521Z,576.00
2018-04-11T08:10:14.710Z,556.00
2018-04-11T08:11:14.872Z,536.00
2018-04-11T08:12:15.078Z,508.00
2018-04-11T08:13:15.239Z,488.00
2018-04-11T08:14:15.419Z,484.00
2018-04-11T08:15:15.603Z,476.00
2018-04-11T08:16:16.057Z,476.00
2018-04-11T08:17:16.014Z,480.00
2018-04-11T08:18:16.152Z,484.00
2018-04-11T08:19:16.325Z,500.00
2018-04-11T08:20:16.511Z,528.00
2018-04-11T08:21:16.695Z,560.00
2018-04-11T08:22:16.891Z,600.00
2018-04-11T08:23:17.088Z,612.00
2018-04-11T08:24:17.231Z,640.00
2018-04-11T08:25:17.410Z,672.00
2018-04-11T08:26:17.592Z,708.00
2018-04-11T08:27:17.753Z,756.00
2018-04-11T08:28:17.934Z,856.00
2018-04-11T08:29:18.471Z,968.00
2018-04-11T08:30:18.290Z,1056.00
2018-04-11T08:31:18.468Z,1124.00
2018-04-11T08:32:18.650Z,1192.00
2018-04-11T08:33:18.850Z,1220.00
2018-04-11T08:34:19.037Z,1212.00
2018-04-11T08:35:19.219Z,1184.00
2018-04-11T08:36:19.407Z,1176.00
2018-04-11T08:37:19.631Z,1180.00
2018-04-11T08:38:19.751Z,1240.00
2018-04-11T08:39:19.933Z,1364.00
2018-04-11T08:40:20.123Z,1512.00
2018-04-11T08:41:20.305Z,1660.00
2018-04-11T08:42:20.488Z,1768.00
2018-04-11T08:43:20.669Z,1820.00
2018-04-11T08:44:20.856Z,1780.00
2018-04-11T08:45:21.032Z,1688.00
2018-04-11T08:46:21.231Z,1608.00
2018-04-11T08:47:21.425Z,1556.00
2018-04-11T08:48:21.588Z,1512.00
2018-04-11T08:49:21.770Z,1508.00
2018-04-11T08:50:21.956Z,1588.00
2018-04-11T08:51:22.138Z,1668.00
2018-04-11T08:52:22.299Z,1700.00
2018-04-11T08:53:22.485Z,1792.00
2018-04-11T08:54:22.684Z,1944.00
2018-04-11T08:55:22.851Z,1952.00
2018-04-11T08:56:23.028Z,1828.00
2018-04-11T08:57:23.202Z,1732.00
2018-04-11T08:58:23.387Z,1744.00
2018-04-11T08:59:23.567Z,1844.00
2018-04-11T09:00:23.785Z,1960.00
2018-04-11T09:01:23.917Z,1984.00
2018-04-11T09:02:24.120Z,1980.00
2018-04-11T09:03:24.294Z,2008.00
2018-04-11T09:04:24.469Z,1956.00
2018-04-11T09:05:24.690Z,1856.00
2018-04-11T09:06:24.837Z,1796.00
2018-04-11T09:07:25.019Z,1828.00
2018-04-11T09:08:25.196Z,2040.00
2018-04-11T09:09:25.395Z,2404.00
2018-04-11T09:10:25.566Z,2928.00
2018-04-11T09:11:25.743Z,3572.00
2018-04-11T09:12:25.931Z,4132.00
2018-04-11T09:13:26.489Z,4448.00
2018-04-11T09:14:26.299Z,4564.00
2018-04-11T09:15:26.486Z,4416.00
2018-04-11T09:16:26.656Z,4152.00
2018-04-11T09:17:26.841Z,3892.00
2018-04-11T09:18:27.018Z,3740.00
2018-04-11T09:19:27.203Z,3592.00
2018-04-11T09:20:27.387Z,3612.00
2018-04-11T09:21:27.568Z,3724.00
2018-04-11T09:22:27.748Z,3852.00
2018-04-11T09:23:27.936Z,4040.00
2018-04-11T09:24:28.113Z,4224.00
2018-04-11T09:25:28.302Z,4340.00
2018-04-11T09:26:28.487Z,4328.00
2018-04-11T09:27:28.684Z,4064.00
2018-04-11T09:28:29.017Z,3740.00
2018-04-11T09:29:29.012Z,3464.00
2018-04-11T09:30:29.179Z,3336.00
2018-04-11T09:31:29.359Z,3420.00
2018-04-11T09:32:29.537Z,3512.00
2018-04-11T09:33:30.449Z,3560.00
2018-04-11T09:34:29.913Z,3476.00
2018-04-11T09:35:30.095Z,3300.00
2018-04-11T09:36:30.306Z,3172.00
2018-04-11T09:37:30.464Z,3180.00
2018-04-11T09:38:30.648Z,3336.00
2018-04-11T09:39:30.823Z,3572.00
2018-04-11T09:40:31.010Z,3732.00
2018-04-11T09:41:31.198Z,3712.00
2018-04-11T09:42:31.376Z,3488.00
2018-04-11T09:43:31.552Z,3208.00
2018-04-11T09:44:31.732Z,3132.00
2018-04-11T09:45:31.907Z,3296.00
2018-04-11T09:46:32.095Z,3356.00
2018-04-11T09:47:32.279Z,3160.00
2018-04-11T09:48:32.450Z,2940.00
2018-04-11T09:49:32.636Z,2956.00
2018-04-11T09:50:32.814Z,3124.00
2018-04-11T09:51:32.998Z,3212.00
2018-04-11T09:52:33.207Z,3364.00
2018-04-11T09:53:33.357Z,3708.00
2018-04-11T09:54:33.541Z,4280.00
2018-04-11T09:58:06.008Z,5164.00
2018-04-11T09:59:06.187Z,5268.00
2018-04-11T10:00:06.549Z,5612.00
2018-04-11T10:01:13.549Z,5800.00
2018-04-11T10:02:06.841Z,5908.00
2018-04-11T10:03:07.013Z,5824.00
2018-04-11T10:04:07.207Z,5288.00
2018-04-11T10:05:07.381Z,4908.00
2018-04-11T10:06:07.717Z,4728.00
2018-04-11T10:07:07.802Z,4684.00
2018-04-11T10:08:08.000Z,4712.00
2018-04-11T10:09:08.184Z,4784.00
2018-04-11T10:10:08.365Z,4868.00
2018-04-11T10:11:08.540Z,5164.00
2018-04-11T10:12:08.724Z,5904.00
2018-04-11T10:13:08.902Z,6540.00
2018-04-11T10:14:09.091Z,6808.00
2018-04-11T10:15:09.261Z,7640.00
2018-04-11T10:16:09.441Z,6856.00
2018-04-11T10:17:09.976Z,6800.00
2018-04-11T10:18:09.795Z,7624.00
2018-04-11T10:19:11.581Z,6388.00
2018-04-11T10:20:10.143Z,6224.00
2018-04-11T10:21:10.324Z,6036.00
2018-04-11T10:22:10.506Z,6132.00
2018-04-11T10:23:10.682Z,6224.00
2018-04-11T10:24:10.866Z,6284.00
2018-04-11T10:25:11.048Z,4944.00
2018-04-11T10:26:11.256Z,4204.00
2018-04-11T10:27:11.421Z,3520.00
2018-04-11T10:28:11.597Z,2948.00
2018-04-11T10:29:11.781Z,2604.00
2018-04-11T10:30:11.976Z,2336.00
2018-04-11T10:31:12.208Z,2220.00
2018-04-11T10:33:12.597Z,2252.00
2018-04-11T10:34:12.785Z,2428.00
2018-04-11T10:35:12.966Z,2788.00
2018-04-11T10:36:13.151Z,3308.00
2018-04-11T10:37:13.324Z,3740.00
2018-04-11T10:38:13.514Z,4112.00
2018-04-11T10:39:13.688Z,4480.00
2018-04-11T10:40:13.855Z,4692.00
2018-04-11T10:41:14.045Z,4796.00
2018-04-11T10:42:14.227Z,5204.00
2018-04-11T10:43:14.413Z,5784.00
2018-04-11T10:44:14.602Z,6452.00
2018-04-11T10:45:14.786Z,6876.00
2018-04-11T10:46:14.977Z,7088.00
2018-04-11T10:47:15.171Z,7024.00
2018-04-11T10:48:15.343Z,6820.00
2018-04-11T10:49:15.626Z,7312.00
2018-04-11T10:50:15.706Z,7252.00
2018-04-11T10:51:15.894Z,5756.00
2018-04-11T10:55:48.594Z,9764.00
2018-04-11T10:56:48.774Z,9928.00
2018-04-11T10:57:48.949Z,10200.00
2018-04-11T10:58:49.135Z,7664.00
2018-04-11T10:59:49.316Z,8340.00
2018-04-11T11:00:49.536Z,6868.00
2018-04-11T11:01:49.693Z,7100.00
2018-04-11T11:02:50.132Z,9252.00
2018-04-11T11:03:50.053Z,9156.00
2018-04-11T11:04:50.239Z,7148.00
2018-04-11T11:05:50.425Z,8000.00
2018-04-11T11:06:50.608Z,9916.00
2018-04-11T11:07:50.794Z,9220.00
2018-04-11T11:08:50.979Z,9536.00
2018-04-11T11:09:51.167Z,9108.00
2018-04-11T11:10:51.481Z,9516.00
2018-04-11T11:11:51.551Z,9396.00
2018-04-11T11:12:51.672Z,9564.00
2018-04-11T11:13:51.857Z,9664.00
2018-04-11T11:14:52.066Z,9608.00
2018-04-11T11:15:52.224Z,8472.00
2018-04-11T11:16:52.637Z,6836.00
2018-04-11T11:17:52.567Z,6568.00
2018-04-11T11:18:52.747Z,6984.00
2018-04-11T11:19:52.930Z,7356.00
2018-04-11T11:20:53.110Z,7840.00
2018-04-11T11:21:53.294Z,8348.00
2018-04-11T11:22:53.505Z,8564.00
2018-04-11T11:23:53.655Z,8332.00
2018-04-11T11:24:53.845Z,8208.00
2018-04-11T11:25:54.033Z,8028.00
2018-04-11T11:27:54.377Z,7116.00
2018-04-11T11:28:54.559Z,6956.00
2018-04-11T11:29:54.735Z,7120.00
2018-04-11T11:30:54.915Z,7000.00
2018-04-11T11:31:55.106Z,7360.00
2018-04-11T11:32:55.273Z,7544.00
2018-04-11T11:33:55.769Z,7124.00
2018-04-11T11:34:55.634Z,6964.00
2018-04-11T11:35:55.837Z,7344.00
2018-04-11T11:36:56.059Z,7080.00
2018-04-11T11:37:56.189Z,7196.00
2018-04-11T11:38:56.375Z,7336.00
2018-04-11T11:39:56.563Z,8224.00
2018-04-11T11:40:56.747Z,7660.00
2018-04-11T11:41:56.934Z,6380.00
2018-04-11T11:42:57.106Z,6156.00
2018-04-11T11:43:57.287Z,6036.00
2018-04-11T11:44:57.477Z,6096.00
2018-04-11T11:45:57.659Z,5996.00
2018-04-11T11:46:57.850Z,5884.00
2018-04-11T11:47:58.023Z,6052.00
2018-04-11T11:48:58.205Z,5052.00
2018-04-11T11:49:58.395Z,4964.00
2018-04-11T11:50:58.578Z,4892.00
2018-04-11T11:51:58.760Z,4656.00
2018-04-11T11:52:58.941Z,4484.00
2018-04-11T11:53:59.113Z,4368.00
2018-04-11T11:54:59.289Z,4320.00
2018-04-11T11:55:59.467Z,4252.00
2018-04-11T11:56:59.652Z,4048.00
2018-04-11T11:57:59.836Z,3796.00
2018-04-11T11:59:00.115Z,3516.00
2018-04-11T12:00:00.203Z,3300.00
2018-04-11T12:01:00.365Z,3176.00
2018-04-11T12:02:00.545Z,3096.00
2018-04-11T12:03:00.741Z,3000.00
2018-04-11T12:04:00.932Z,2940.00
2018-04-11T12:05:01.121Z,2928.00
2018-04-11T12:06:01.291Z,2972.00
2018-04-11T12:07:01.474Z,3048.00
2018-04-11T12:08:01.659Z,3192.00
2018-04-11T12:09:01.827Z,3344.00
2018-04-11T12:10:02.011Z,3508.00
2018-04-11T12:11:02.207Z,3692.00
2018-04-11T12:12:02.387Z,3944.00
2018-04-11T12:13:02.562Z,4248.00
2018-04-11T12:14:02.741Z,4680.00
2018-04-11T12:15:02.934Z,5352.00
2018-04-11T12:16:03.125Z,6072.00
2018-04-11T12:17:03.303Z,6132.00
2018-04-11T12:18:03.491Z,6176.00
2018-04-11T12:19:03.674Z,6464.00
2018-04-11T12:20:03.852Z,6736.00
2018-04-11T12:21:04.044Z,8092.00
2018-04-11T12:22:04.225Z,6308.00
2018-04-11T12:23:04.447Z,6736.00
2018-04-11T12:24:04.600Z,7368.00
2018-04-11T12:26:04.942Z,6800.00
2018-04-11T12:27:05.126Z,5876.00
2018-04-11T12:28:05.304Z,6576.00
2018-04-11T12:29:05.492Z,6868.00
2018-04-11T12:30:05.678Z,5080.00
2018-04-11T12:31:05.845Z,4760.00
2018-04-11T12:32:06.316Z,4596.00
2018-04-11T12:33:06.215Z,4584.00
2018-04-11T12:34:06.397Z,4624.00
2018-04-11T12:35:06.564Z,4712.00
2018-04-11T12:36:06.760Z,5636.00
2018-04-11T12:37:06.936Z,6352.00
2018-04-11T12:38:07.115Z,6552.00
2018-04-11T12:39:07.315Z,5960.00
2018-04-11T12:40:07.482Z,6764.00
2018-04-11T12:41:07.710Z,7056.00
2018-04-11T12:42:07.896Z,6188.00
2018-04-11T12:43:08.062Z,5592.00
2018-04-11T12:44:08.244Z,4752.00
2018-04-11T12:45:08.428Z,4520.00
2018-04-11T12:46:08.611Z,4352.00
2018-04-11T12:47:08.791Z,4428.00
2018-04-11T12:48:08.978Z,4924.00
2018-04-11T12:49:09.176Z,4744.00
2018-04-11T12:50:09.345Z,5328.00
2018-04-11T12:51:09.532Z,7304.00
2018-04-11T12:52:09.712Z,6144.00
2018-04-11T12:53:09.893Z,4984.00
2018-04-11T12:54:10.108Z,4828.00